createdAt,value
2022-09-22T00:00:12.300Z,961.79
2022-09-22T00:01:12.370Z,961.75
2022-09-22T00:02:12.309Z,961.77
2022-09-22T00:03:12.275Z,961.79
2022-09-22T00:04:12.246Z,961.75
2022-09-22T00:05:12.221Z,961.77
2022-09-22T00:06:12.201Z,961.77
2022-09-22T00:07:12.188Z,961.79
2022-09-22T00:08:12.170Z,961.75
2022-09-22T00:09:12.156Z,961.74
2022-09-22T00:10:12.138Z,961.75
2022-09-22T00:11:12.124Z,961.76
2022-09-22T00:12:12.107Z,961.73
2022-09-22T00:13:12.095Z,961.75
2022-09-22T00:14:12.074Z,961.77
2022-09-22T00:15:12.060Z,961.72
2022-09-22T00:16:12.096Z,961.74
2022-09-22T00:17:12.027Z,961.73
2022-09-22T00:18:12.010Z,961.8
2022-09-22T00:19:12.018Z,961.75
2022-09-22T00:20:11.981Z,961.74
2022-09-22T00:21:11.962Z,961.74
2022-09-22T00:22:11.947Z,961.71
2022-09-22T00:23:11.931Z,961.69
2022-09-22T00:24:11.914Z,961.72
2022-09-22T00:25:11.897Z,961.7
2022-09-22T00:26:11.883Z,961.66
2022-09-22T00:27:11.866Z,961.66
2022-09-22T00:28:11.852Z,961.68
2022-09-22T00:29:11.834Z,961.68
2022-09-22T00:30:11.820Z,961.64
2022-09-22T00:31:11.845Z,961.67
2022-09-22T00:32:11.787Z,961.66
2022-09-22T00:33:11.769Z,961.65
2022-09-22T00:34:11.754Z,961.63
2022-09-22T00:35:11.760Z,961.63
2022-09-22T00:36:11.723Z,961.62
2022-09-22T00:37:11.704Z,961.58
2022-09-22T00:38:11.691Z,961.66
2022-09-22T00:39:11.672Z,961.61
2022-09-22T00:40:11.674Z,961.64
2022-09-22T00:41:11.640Z,961.59
2022-09-22T00:42:11.626Z,961.61
2022-09-22T00:43:11.609Z,961.65
2022-09-22T00:44:11.593Z,961.58
2022-09-22T00:45:11.576Z,961.57
2022-09-22T00:46:11.614Z,961.57
2022-09-22T00:47:11.543Z,961.58
2022-09-22T00:48:11.529Z,961.61
2022-09-22T00:49:11.511Z,961.62
2022-09-22T00:50:11.496Z,961.62
2022-09-22T00:51:11.507Z,961.59
2022-09-22T00:52:11.466Z,961.61
2022-09-22T00:53:11.446Z,961.58
2022-09-22T00:54:11.432Z,961.56
2022-09-22T00:55:11.414Z,961.59
2022-09-22T00:56:11.400Z,961.58
2022-09-22T00:57:11.380Z,961.56
2022-09-22T00:58:11.367Z,961.56
2022-09-22T00:59:11.350Z,961.57
2022-09-22T01:00:11.335Z,961.57
2022-09-22T01:01:11.368Z,961.59
2022-09-22T01:02:11.338Z,961.61
2022-09-22T01:03:11.283Z,961.61
2022-09-22T01:04:11.270Z,961.59
2022-09-22T01:05:11.251Z,961.53
2022-09-22T01:06:11.237Z,961.56
2022-09-22T01:07:11.243Z,961.58
2022-09-22T01:08:11.206Z,961.53
2022-09-22T01:09:11.190Z,961.54
2022-09-22T01:10:11.170Z,961.53
2022-09-22T01:11:11.157Z,961.55
2022-09-22T01:12:11.139Z,961.51
2022-09-22T01:13:11.123Z,961.55
2022-09-22T01:14:11.106Z,961.48
2022-09-22T01:15:11.092Z,961.52
2022-09-22T01:16:11.129Z,961.53
2022-09-22T01:17:11.060Z,961.48
2022-09-22T01:18:11.043Z,961.45
2022-09-22T01:19:11.028Z,961.51
2022-09-22T01:20:11.011Z,961.47
2022-09-22T01:21:10.996Z,961.46
2022-09-22T01:22:10.979Z,961.46
2022-09-22T01:23:10.990Z,961.47
2022-09-22T01:24:10.945Z,961.45
2022-09-22T01:25:10.931Z,961.48
2022-09-22T01:26:10.912Z,961.46
2022-09-22T01:27:10.898Z,961.46
2022-09-22T01:28:10.881Z,961.45
2022-09-22T01:29:10.867Z,961.49
2022-09-22T01:30:10.850Z,961.48
2022-09-22T01:31:10.867Z,961.47
2022-09-22T01:32:10.815Z,961.47
2022-09-22T01:33:10.803Z,961.46
2022-09-22T01:34:10.784Z,961.49
2022-09-22T01:35:10.771Z,961.44
2022-09-22T01:36:10.753Z,961.44
2022-09-22T01:37:10.737Z,961.44
2022-09-22T01:38:10.724Z,961.44
2022-09-22T01:39:10.730Z,961.43
2022-09-22T01:40:10.728Z,961.43
2022-09-22T01:41:10.673Z,961.42
2022-09-22T01:42:10.656Z,961.44
2022-09-22T01:43:10.641Z,961.41
2022-09-22T01:44:10.625Z,961.44
2022-09-22T01:45:10.609Z,961.41
2022-09-22T01:46:10.657Z,961.36
2022-09-22T01:47:10.578Z,961.4
2022-09-22T01:48:10.560Z,961.44
2022-09-22T01:49:10.545Z,961.39
2022-09-22T01:50:10.527Z,961.38
2022-09-22T01:51:10.516Z,961.39
2022-09-22T01:52:10.495Z,961.36
2022-09-22T01:53:10.481Z,961.35
2022-09-22T01:54:10.465Z,961.37
2022-09-22T01:55:10.476Z,961.37
2022-09-22T01:56:10.432Z,961.3
2022-09-22T01:57:10.417Z,961.31
2022-09-22T01:58:10.401Z,961.26
2022-09-22T01:59:10.393Z,961.3
2022-09-22T02:00:10.369Z,961.28
2022-09-22T02:01:14.349Z,961.25
2022-09-22T02:02:10.493Z,961.26
2022-09-22T02:03:10.321Z,961.24
2022-09-22T02:04:10.306Z,961.26
2022-09-22T02:05:10.288Z,961.25
2022-09-22T02:06:10.275Z,961.26
2022-09-22T02:07:10.256Z,961.25
2022-09-22T02:08:10.245Z,961.31
2022-09-22T02:09:10.224Z,961.28
2022-09-22T02:10:10.212Z,961.27
2022-09-22T02:11:10.219Z,961.3
2022-09-22T02:12:10.177Z,961.31
2022-09-22T02:13:10.161Z,961.29
2022-09-22T02:14:10.145Z,961.24
2022-09-22T02:15:10.128Z,961.23
2022-09-22T02:16:10.178Z,961.25
2022-09-22T02:17:10.097Z,961.22
2022-09-22T02:18:10.082Z,961.21
2022-09-22T02:19:12.839Z,961.23
2022-09-22T02:20:10.050Z,961.23
2022-09-22T02:21:10.031Z,961.21
2022-09-22T02:22:10.020Z,961.17
2022-09-22T02:23:10.001Z,961.2
2022-09-22T02:24:09.986Z,961.17
2022-09-22T02:25:09.967Z,961.18
2022-09-22T02:26:09.953Z,961.19
2022-09-22T02:27:09.961Z,961.19
2022-09-22T02:28:09.922Z,961.16
2022-09-22T02:29:09.903Z,961.15
2022-09-22T02:30:09.890Z,961.13
2022-09-22T02:31:19.799Z,961.11
2022-09-22T02:32:09.892Z,961.17
2022-09-22T02:33:09.840Z,961.1
2022-09-22T02:34:09.825Z,961.11
2022-09-22T02:35:09.807Z,961.13
2022-09-22T02:36:09.792Z,961.1
2022-09-22T02:37:09.775Z,961.14
2022-09-22T02:38:09.762Z,961.1
2022-09-22T02:39:09.743Z,961.11
2022-09-22T02:40:09.814Z,961.13
2022-09-22T02:41:09.710Z,961.14
2022-09-22T02:42:09.697Z,961.12
2022-09-22T02:43:09.703Z,961.11
2022-09-22T02:44:09.664Z,961.12
2022-09-22T02:45:09.646Z,961.1
2022-09-22T02:46:09.672Z,961.1
2022-09-22T02:47:09.613Z,961.12
2022-09-22T02:48:09.599Z,961.11
2022-09-22T02:49:09.582Z,961.08
2022-09-22T02:50:09.567Z,961.08
2022-09-22T02:51:09.550Z,961.06
2022-09-22T02:52:09.535Z,961.07
2022-09-22T02:53:09.520Z,961.05
2022-09-22T02:54:09.503Z,961.04
2022-09-22T02:55:09.491Z,961.05
2022-09-22T02:56:09.469Z,961.01
2022-09-22T02:57:09.457Z,961
2022-09-22T02:58:09.438Z,961
2022-09-22T02:59:09.557Z,961.01
2022-09-22T03:00:09.446Z,960.98
2022-09-22T03:01:09.475Z,961.02
2022-09-22T03:02:09.374Z,961.01
2022-09-22T03:03:09.356Z,961.01
2022-09-22T03:04:09.340Z,961.01
2022-09-22T03:05:09.352Z,960.98
2022-09-22T03:06:09.307Z,960.99
2022-09-22T03:07:09.294Z,961.01
2022-09-22T03:08:09.274Z,961.01
2022-09-22T03:09:09.258Z,961
2022-09-22T03:10:09.243Z,960.99
2022-09-22T03:11:09.227Z,961.01
2022-09-22T03:12:09.208Z,960.99
2022-09-22T03:13:16.239Z,960.97
2022-09-22T03:14:09.226Z,960.94
2022-09-22T03:15:09.185Z,960.96
2022-09-22T03:16:09.249Z,960.96
2022-09-22T03:17:09.130Z,960.93
2022-09-22T03:18:09.114Z,960.96
2022-09-22T03:19:09.095Z,960.94
2022-09-22T03:20:09.076Z,960.91
2022-09-22T03:21:09.062Z,960.96
2022-09-22T03:22:09.043Z,960.91
2022-09-22T03:23:09.028Z,960.92
2022-09-22T03:24:09.011Z,960.92
2022-09-22T03:25:08.998Z,960.89
2022-09-22T03:26:08.979Z,960.94
2022-09-22T03:27:08.964Z,960.9
2022-09-22T03:28:08.948Z,960.91
2022-09-22T03:29:08.971Z,960.91
2022-09-22T03:30:08.913Z,960.9
2022-09-22T03:31:08.965Z,960.95
2022-09-22T03:32:08.881Z,960.9
2022-09-22T03:49:22.384Z,960.89
2022-09-22T03:50:22.336Z,960.91
2022-09-22T03:51:22.322Z,960.87
2022-09-22T03:52:22.303Z,960.9
2022-09-22T03:53:22.282Z,960.9
2022-09-22T03:54:22.266Z,960.89
2022-09-22T03:55:22.250Z,960.9
2022-09-22T03:56:22.230Z,960.92
2022-09-22T03:57:22.210Z,960.92
2022-09-22T03:58:22.188Z,960.91
2022-09-22T03:59:22.176Z,960.91
2022-09-22T04:00:22.158Z,960.92
2022-09-22T04:01:22.163Z,960.86
2022-09-22T04:02:22.150Z,960.88
2022-09-22T04:03:22.101Z,960.9
2022-09-22T04:04:22.083Z,960.86
2022-09-22T04:05:22.093Z,960.85
2022-09-22T04:06:22.050Z,960.91
2022-09-22T04:07:22.033Z,960.86
2022-09-22T04:08:22.013Z,960.9
2022-09-22T04:09:21.999Z,960.83
2022-09-22T04:10:21.978Z,960.88
2022-09-22T04:11:21.964Z,960.85
2022-09-22T04:12:21.944Z,960.88
2022-09-22T04:13:21.930Z,960.86
2022-09-22T04:14:21.912Z,960.86
2022-09-22T04:15:21.896Z,960.88
2022-09-22T04:16:21.900Z,960.85
2022-09-22T04:17:21.862Z,960.84
2022-09-22T04:18:21.844Z,960.87
2022-09-22T04:19:21.828Z,960.87
2022-09-22T04:20:21.810Z,960.8
2022-09-22T04:21:21.818Z,960.87
2022-09-22T04:22:21.776Z,960.82
2022-09-22T04:23:21.762Z,960.85
2022-09-22T04:24:21.742Z,960.84
2022-09-22T04:25:21.726Z,960.83
2022-09-22T04:26:21.709Z,960.84
2022-09-22T04:27:21.693Z,960.84
2022-09-22T04:28:21.676Z,960.82
2022-09-22T04:29:21.660Z,960.81
2022-09-22T04:30:21.642Z,960.8
2022-09-22T04:31:21.626Z,960.79
2022-09-22T04:32:21.610Z,960.84
2022-09-22T04:33:21.595Z,960.8
2022-09-22T04:34:21.575Z,960.77
2022-09-22T04:35:21.560Z,960.8
2022-09-22T04:36:21.541Z,960.79
2022-09-22T04:37:21.553Z,960.83
2022-09-22T04:38:21.510Z,960.87
2022-09-22T04:39:23.764Z,960.81
2022-09-22T04:40:21.508Z,960.81
2022-09-22T04:41:21.459Z,960.8
2022-09-22T04:42:21.444Z,960.8
2022-09-22T04:43:21.426Z,960.83
2022-09-22T04:44:21.411Z,960.83
2022-09-22T04:45:21.393Z,960.84
2022-09-22T04:46:21.442Z,960.84
2022-09-22T04:47:21.359Z,960.83
2022-09-22T04:48:21.351Z,960.83
2022-09-22T04:49:21.325Z,960.84
2022-09-22T04:50:21.312Z,960.85
2022-09-22T04:51:21.292Z,960.88
2022-09-22T04:52:21.277Z,960.84
2022-09-22T04:53:21.286Z,960.91
2022-09-22T04:54:21.243Z,960.91
2022-09-22T04:55:21.226Z,960.9
2022-09-22T04:56:21.211Z,960.91
2022-09-22T04:57:21.192Z,960.89
2022-09-22T04:58:21.176Z,960.91
2022-09-22T04:59:21.160Z,960.91
2022-09-22T05:00:21.211Z,960.88
2022-09-22T05:01:21.159Z,960.91
2022-09-22T05:02:21.111Z,960.9
2022-09-22T05:03:22.311Z,960.91
2022-09-22T05:04:21.076Z,960.91
2022-09-22T05:05:21.106Z,960.88
2022-09-22T05:06:21.041Z,960.88
2022-09-22T05:07:21.024Z,960.91
2022-09-22T05:08:21.011Z,960.89
2022-09-22T05:09:21.019Z,960.87
2022-09-22T05:10:21.073Z,960.91
2022-09-22T05:11:20.957Z,960.91
2022-09-22T05:12:20.941Z,960.88
2022-09-22T05:13:20.927Z,960.86
2022-09-22T05:14:25.686Z,960.93
2022-09-22T05:15:20.891Z,960.93
2022-09-22T05:16:20.907Z,960.94
2022-09-22T05:17:20.857Z,960.91
2022-09-22T05:18:20.841Z,960.91
2022-09-22T05:19:20.823Z,960.93
2022-09-22T05:20:20.890Z,960.93
2022-09-22T05:21:20.789Z,960.84
2022-09-22T05:22:20.774Z,960.91
2022-09-22T05:23:20.757Z,960.92
2022-09-22T05:24:20.740Z,960.93
2022-09-22T05:25:20.747Z,960.94
2022-09-22T05:26:20.708Z,960.95
2022-09-22T05:27:20.689Z,960.92
2022-09-22T05:28:20.674Z,960.92
2022-09-22T05:29:23.528Z,960.94
2022-09-22T05:30:20.639Z,960.93
2022-09-22T05:31:20.670Z,960.96
2022-09-22T05:32:20.606Z,961
2022-09-22T05:33:20.590Z,961.01
2022-09-22T05:34:20.570Z,961
2022-09-22T05:35:20.556Z,960.98
2022-09-22T05:36:20.538Z,961.03
2022-09-22T05:37:20.526Z,961.01
2022-09-22T05:38:20.505Z,960.98
2022-09-22T05:39:20.490Z,961.05
2022-09-22T05:40:20.582Z,961
2022-09-22T05:41:20.553Z,961.05
2022-09-22T05:42:20.437Z,961.02
2022-09-22T05:43:20.422Z,961.04
2022-09-22T05:44:20.404Z,961.05
2022-09-22T05:45:20.409Z,961.03
2022-09-22T05:46:20.413Z,961.07
2022-09-22T05:47:20.357Z,961.09
2022-09-22T05:48:20.342Z,961.05
2022-09-22T05:49:20.324Z,961.04
2022-09-22T05:50:20.306Z,961.05
2022-09-22T05:51:20.292Z,961.09
2022-09-22T05:52:20.275Z,961.04
2022-09-22T05:53:20.258Z,961.08
2022-09-22T05:54:23.309Z,961.09
2022-09-22T05:55:20.225Z,961.06
2022-09-22T05:56:20.209Z,961.06
2022-09-22T05:57:20.217Z,961.05
2022-09-22T05:58:20.176Z,961.04
2022-09-22T05:59:20.161Z,961.02
2022-09-22T06:00:20.146Z,961.06
2022-09-22T06:01:20.152Z,961.08
2022-09-22T06:02:25.915Z,961.03
2022-09-22T06:03:20.098Z,961.07
2022-09-22T06:04:20.080Z,961.05
2022-09-22T06:05:20.065Z,961.09
2022-09-22T06:06:20.050Z,961.05
2022-09-22T06:07:20.034Z,961.07
2022-09-22T06:08:20.018Z,961.08
2022-09-22T06:09:20.003Z,961.06
2022-09-22T06:10:19.985Z,961.05
2022-09-22T06:11:19.971Z,961.08
2022-09-22T06:12:19.954Z,961.05
2022-09-22T06:13:19.963Z,961.03
2022-09-22T06:14:19.924Z,961.03
2022-09-22T06:15:19.910Z,961.07
2022-09-22T06:16:19.937Z,961.05
2022-09-22T06:17:19.878Z,961.07
2022-09-22T06:18:24.330Z,961.07
2022-09-22T06:19:19.848Z,961.11
2022-09-22T06:20:19.832Z,961.09
2022-09-22T06:21:19.817Z,961.1
2022-09-22T06:22:19.799Z,961.11
2022-09-22T06:23:19.786Z,961.06
2022-09-22T06:24:19.771Z,961.07
2022-09-22T06:25:19.755Z,961.09
2022-09-22T06:26:19.741Z,961.06
2022-09-22T06:27:19.724Z,961.03
2022-09-22T06:28:19.711Z,961.06
2022-09-22T06:29:19.718Z,961.06
2022-09-22T06:30:19.679Z,961.07
2022-09-22T06:31:19.733Z,961.06
2022-09-22T06:32:19.649Z,961.02
2022-09-22T06:33:19.633Z,961.02
2022-09-22T06:34:19.617Z,961.04
2022-09-22T06:35:19.601Z,961.09
2022-09-22T06:36:19.588Z,961.02
2022-09-22T06:37:19.572Z,961.07
2022-09-22T06:38:19.557Z,961.05
2022-09-22T06:39:19.541Z,961.07
2022-09-22T06:40:19.533Z,961.13
2022-09-22T06:41:19.511Z,961.08
2022-09-22T06:42:19.495Z,961.1
2022-09-22T06:43:19.479Z,961.1
2022-09-22T06:44:19.464Z,961.04
2022-09-22T06:45:19.473Z,961.06
2022-09-22T06:46:19.474Z,961.02
2022-09-22T06:47:19.417Z,961.05
2022-09-22T06:48:19.405Z,960.99
2022-09-22T06:49:19.386Z,961.01
2022-09-22T06:50:19.373Z,960.99
2022-09-22T06:51:19.355Z,961.01
2022-09-22T06:52:19.341Z,961.01
2022-09-22T06:53:19.341Z,961
2022-09-22T06:54:21.496Z,960.98
2022-09-22T06:55:19.293Z,960.98
2022-09-22T06:56:19.280Z,960.96
2022-09-22T06:57:19.263Z,960.94
2022-09-22T06:58:19.250Z,960.97
2022-09-22T06:59:19.352Z,960.94
2022-09-22T07:00:19.219Z,960.94
2022-09-22T07:01:19.311Z,960.97
2022-09-22T07:02:19.288Z,961
2022-09-22T07:03:19.172Z,960.99
2022-09-22T07:04:19.158Z,960.98
2022-09-22T07:05:19.146Z,961
2022-09-22T07:06:20.300Z,960.96
2022-09-22T07:07:19.111Z,960.96
2022-09-22T07:08:19.097Z,960.96
2022-09-22T07:09:19.080Z,960.95
2022-09-22T07:10:19.066Z,960.95
2022-09-22T07:11:19.051Z,960.92
2022-09-22T07:12:19.040Z,960.93
2022-09-22T07:13:19.020Z,960.98
2022-09-22T07:14:19.003Z,960.97
2022-09-22T07:15:18.990Z,960.95
2022-09-22T07:16:19.014Z,960.97
2022-09-22T07:17:18.983Z,960.97
2022-09-22T07:18:18.943Z,961.02
2022-09-22T07:19:18.929Z,961.02
2022-09-22T07:20:18.912Z,961.03
2022-09-22T07:21:18.901Z,961
2022-09-22T07:22:18.885Z,961.06
2022-09-22T07:23:18.873Z,961.05
2022-09-22T07:24:18.854Z,961.05
2022-09-22T07:25:18.840Z,961.09
2022-09-22T07:26:18.825Z,961.07
2022-09-22T07:27:18.811Z,961.08
2022-09-22T07:28:18.797Z,961.05
2022-09-22T07:29:18.783Z,961.05
2022-09-22T07:30:18.765Z,961.06
2022-09-22T07:31:18.802Z,961.05
2022-09-22T07:32:18.735Z,961.06
2022-09-22T07:33:18.748Z,961.1
2022-09-22T07:34:18.724Z,961.07
2022-09-22T07:35:18.692Z,961.03
2022-09-22T07:36:18.682Z,961.06
2022-09-22T07:37:18.664Z,961.09
2022-09-22T07:38:18.650Z,961.08
2022-09-22T07:39:18.633Z,961.07
2022-09-22T07:40:18.633Z,961.06
2022-09-22T07:41:18.607Z,961.08
2022-09-22T07:42:18.589Z,961.04
2022-09-22T07:43:18.578Z,961.06
2022-09-22T07:44:18.561Z,961.06
2022-09-22T07:45:18.548Z,961.06
2022-09-22T07:46:18.578Z,961.03
2022-09-22T07:47:18.520Z,961.07
2022-09-22T07:48:18.505Z,961.04
2022-09-22T07:49:18.544Z,961.05
2022-09-22T07:50:18.575Z,961.04
2022-09-22T07:51:18.463Z,961.04
2022-09-22T07:52:18.469Z,961.05
2022-09-22T07:53:18.435Z,961.05
2022-09-22T07:54:18.468Z,961.01
2022-09-22T07:55:18.407Z,961.03
2022-09-22T07:56:18.395Z,961.04
2022-09-22T07:57:18.392Z,961.03
2022-09-22T07:58:18.361Z,961.04
2022-09-22T07:59:18.401Z,961.09
2022-09-22T08:00:18.335Z,961.07
2022-09-22T08:01:18.323Z,961.05
2022-09-22T08:02:18.322Z,961.09
2022-09-22T08:03:18.295Z,961.08
2022-09-22T08:05:18.293Z,961.06
2022-09-22T08:06:18.478Z,961.05
2022-09-22T08:07:18.240Z,961.06
2022-09-22T08:08:18.227Z,961.08
2022-09-22T08:09:18.213Z,961.13
2022-09-22T08:10:18.200Z,961.1
2022-09-22T08:11:18.186Z,961.14
2022-09-22T08:12:18.174Z,961.17
2022-09-22T08:13:18.158Z,961.13
2022-09-22T08:14:18.148Z,961.13
2022-09-22T08:15:18.139Z,961.1
2022-09-22T08:16:18.158Z,961.12
2022-09-22T08:17:18.130Z,961.11
2022-09-22T08:18:18.122Z,961.14
2022-09-22T08:19:18.081Z,961.15
2022-09-22T08:20:18.077Z,961.12
2022-09-22T08:21:18.081Z,961.11
2022-09-22T08:22:18.045Z,961.09
2022-09-22T08:23:18.030Z,961.08
2022-09-22T08:24:18.019Z,961.07
2022-09-22T08:25:18.005Z,961.07
2022-09-22T08:26:17.993Z,961.1
2022-09-22T08:27:17.981Z,961.13
2022-09-22T08:28:17.969Z,961.09
2022-09-22T08:29:17.958Z,961.1
2022-09-22T08:30:17.945Z,961.11
2022-09-22T08:31:18.012Z,961.13
2022-09-22T08:32:17.920Z,961.06
2022-09-22T08:33:17.951Z,961.08
2022-09-22T08:34:18.102Z,961.05
2022-09-22T08:35:17.884Z,961.08
2022-09-22T08:36:17.874Z,961.1
2022-09-22T08:37:17.904Z,961.04
2022-09-22T08:38:17.849Z,961.05
2022-09-22T08:39:17.885Z,961.04
2022-09-22T08:40:17.865Z,961.05
2022-09-22T08:41:17.812Z,961.06
2022-09-22T08:42:17.803Z,961.05
2022-09-22T08:43:17.790Z,961.09
2022-09-22T08:44:17.780Z,961.06
2022-09-22T08:45:17.767Z,961.06
2022-09-22T08:46:17.800Z,961.08
2022-09-22T08:47:17.746Z,961.05
2022-09-22T08:48:17.735Z,961.03
2022-09-22T08:49:17.723Z,961.07
2022-09-22T08:50:17.714Z,961
2022-09-22T08:51:17.701Z,961.02
2022-09-22T08:52:17.691Z,961.05
2022-09-22T08:53:17.712Z,961.04
2022-09-22T08:54:17.671Z,961.03
2022-09-22T08:55:17.657Z,961.03
2022-09-22T08:56:17.648Z,961.03
2022-09-22T08:57:17.637Z,961.01
2022-09-22T08:58:17.631Z,961.02
2022-09-22T08:59:17.616Z,961.04
2022-09-22T09:00:17.644Z,961.02
2022-09-22T09:01:17.639Z,961.04
2022-09-22T09:02:17.584Z,961.04
2022-09-22T09:03:17.575Z,961.03
2022-09-22T09:04:17.565Z,961.05
2022-09-22T09:05:17.556Z,961.03
2022-09-22T09:06:17.547Z,960.97
2022-09-22T09:07:17.535Z,961.02
2022-09-22T09:08:17.523Z,961.04
2022-09-22T09:09:17.538Z,961.03
2022-09-22T09:10:17.516Z,961.03
2022-09-22T09:11:17.549Z,961.07
2022-09-22T09:12:17.482Z,961.02
2022-09-22T09:13:17.474Z,961.04
2022-09-22T09:14:17.465Z,961.03
2022-09-22T09:15:17.455Z,961
2022-09-22T09:16:17.480Z,961.01
2022-09-22T09:17:17.433Z,961.02
2022-09-22T09:18:17.423Z,961.01
2022-09-22T09:19:17.415Z,961.03
2022-09-22T09:20:17.487Z,961
2022-09-22T09:21:17.395Z,961.05
2022-09-22T09:22:17.383Z,961.05
2022-09-22T09:23:17.953Z,961.04
2022-09-22T09:25:27.677Z,961.05
2022-09-22T09:26:26.855Z,961
2022-09-22T09:27:26.845Z,961.03
2022-09-22T09:28:27.956Z,961
2022-09-22T09:29:26.826Z,961.05
2022-09-22T09:30:26.816Z,961.05
2022-09-22T09:31:26.874Z,961.04
2022-09-22T09:32:26.798Z,961
2022-09-22T09:33:26.787Z,961.07
2022-09-22T09:34:26.780Z,961.06
2022-09-22T09:35:26.880Z,961.02
2022-09-22T09:36:26.762Z,961.01
2022-09-22T09:37:26.749Z,961.01
2022-09-22T09:38:26.743Z,961.01
2022-09-22T09:39:26.732Z,960.97
2022-09-22T09:40:26.757Z,960.98
2022-09-22T09:41:26.737Z,960.97
2022-09-22T09:42:26.704Z,960.98
2022-09-22T09:43:26.693Z,961.01
2022-09-22T09:44:26.687Z,961.02
2022-09-22T09:45:26.676Z,960.99
2022-09-22T09:46:26.796Z,960.98
2022-09-22T09:47:26.654Z,960.98
2022-09-22T09:48:26.654Z,960.97
2022-09-22T09:49:26.638Z,960.96
2022-09-22T09:50:26.627Z,960.97
2022-09-22T09:51:26.618Z,960.96
2022-09-22T09:52:26.610Z,960.96
2022-09-22T09:53:26.600Z,960.96
2022-09-22T09:54:26.587Z,960.94
2022-09-22T09:55:27.137Z,960.97
2022-09-22T09:56:26.571Z,960.93
2022-09-22T09:57:28.037Z,960.96
2022-09-22T09:58:26.547Z,960.95
2022-09-22T09:59:26.539Z,960.9
2022-09-22T10:00:26.641Z,960.92
2022-09-22T10:01:26.564Z,960.95
2022-09-22T10:02:26.509Z,960.96
2022-09-22T10:03:26.524Z,960.94
2022-09-22T10:04:26.489Z,960.93
2022-09-22T10:05:26.481Z,960.92
2022-09-22T10:06:26.479Z,960.95
2022-09-22T10:07:26.478Z,960.9
2022-09-22T10:08:26.452Z,960.91
2022-09-22T10:09:26.444Z,960.91
2022-09-22T10:10:26.496Z,960.92
2022-09-22T10:11:26.424Z,960.94
2022-09-22T10:12:26.414Z,960.88
2022-09-22T10:13:26.429Z,960.83
2022-09-22T10:14:26.393Z,960.87
2022-09-22T10:15:26.386Z,960.85
2022-09-22T10:16:26.375Z,960.88
2022-09-22T10:17:26.367Z,960.9
2022-09-22T10:18:26.357Z,960.87
2022-09-22T10:19:26.350Z,960.85
2022-09-22T10:20:26.356Z,960.82
2022-09-22T10:21:26.331Z,960.84
2022-09-22T10:22:26.326Z,960.84
2022-09-22T10:23:26.314Z,960.8
2022-09-22T10:24:26.302Z,960.82
2022-09-22T10:25:26.298Z,960.85
2022-09-22T10:26:26.368Z,960.83
2022-09-22T10:27:26.278Z,960.84
2022-09-22T10:28:26.267Z,960.84
2022-09-22T10:29:26.284Z,960.86
2022-09-22T10:30:26.279Z,960.85
2022-09-22T10:31:26.374Z,960.83
2022-09-22T10:32:26.234Z,960.86
2022-09-22T10:33:26.234Z,960.85
2022-09-22T10:34:26.217Z,960.83
2022-09-22T10:35:26.211Z,960.79
2022-09-22T10:36:26.200Z,960.78
2022-09-22T10:37:26.197Z,960.78
2022-09-22T10:38:26.185Z,960.74
2022-09-22T10:39:26.177Z,960.77
2022-09-22T10:40:26.265Z,960.79
2022-09-22T10:41:26.160Z,960.74
2022-09-22T10:42:26.155Z,960.76
2022-09-22T10:43:26.145Z,960.76
2022-09-22T10:44:44.034Z,960.74
2022-09-22T10:45:26.166Z,960.76
2022-09-22T10:46:26.257Z,960.78
2022-09-22T10:47:27.234Z,960.79
2022-09-22T10:48:26.112Z,960.8
2022-09-22T10:49:26.099Z,960.78
2022-09-22T10:50:26.242Z,960.78
2022-09-22T10:51:26.084Z,960.78
2022-09-22T10:52:26.078Z,960.8
2022-09-22T10:53:26.067Z,960.79
2022-09-22T10:54:26.063Z,960.75
2022-09-22T10:55:26.054Z,960.82
2022-09-22T10:56:26.051Z,960.74
2022-09-22T10:57:26.039Z,960.75
2022-09-22T10:58:26.035Z,960.74
2022-09-22T10:59:26.029Z,960.75
2022-09-22T11:00:26.028Z,960.71
2022-09-22T11:01:26.118Z,960.74
2022-09-22T11:02:26.006Z,960.71
2022-09-22T11:03:25.995Z,960.75
2022-09-22T11:04:26.011Z,960.68
2022-09-22T11:05:25.981Z,960.72
2022-09-22T11:06:25.972Z,960.68
2022-09-22T11:07:25.965Z,960.7
2022-09-22T11:08:25.958Z,960.69
2022-09-22T11:09:25.950Z,960.72
2022-09-22T11:10:25.943Z,960.7
2022-09-22T11:11:25.934Z,960.68
2022-09-22T11:12:25.928Z,960.66
2022-09-22T11:13:25.925Z,960.65
2022-09-22T11:14:25.913Z,960.65
2022-09-22T11:15:25.972Z,960.62
2022-09-22T11:16:25.898Z,960.67
2022-09-22T11:17:25.912Z,960.67
2022-09-22T11:18:25.882Z,960.68
2022-09-22T11:19:25.872Z,960.68
2022-09-22T11:20:25.868Z,960.64
2022-09-22T11:21:25.857Z,960.65
2022-09-22T11:22:25.852Z,960.64
2022-09-22T11:23:25.841Z,960.62
2022-09-22T11:24:25.837Z,960.65
2022-09-22T11:25:25.828Z,960.63
2022-09-22T11:26:25.818Z,960.6
2022-09-22T11:27:25.810Z,960.64
2022-09-22T11:28:25.803Z,960.62
2022-09-22T11:29:25.796Z,960.65
2022-09-22T11:30:25.786Z,960.59
2022-09-22T11:31:25.779Z,960.59
2022-09-22T11:32:25.771Z,960.59
2022-09-22T11:33:25.786Z,960.6
2022-09-22T11:34:25.754Z,960.57
2022-09-22T11:35:25.750Z,960.58
2022-09-22T11:36:25.739Z,960.54
2022-09-22T11:37:25.813Z,960.51
2022-09-22T11:38:25.721Z,960.5
2022-09-22T11:39:25.714Z,960.47
2022-09-22T11:40:25.749Z,960.49
2022-09-22T11:41:25.702Z,960.46
2022-09-22T11:42:25.689Z,960.47
2022-09-22T11:43:25.683Z,960.45
2022-09-22T11:44:25.677Z,960.46
2022-09-22T11:45:25.666Z,960.4
2022-09-22T11:46:25.711Z,960.42
2022-09-22T11:47:25.651Z,960.41
2022-09-22T11:48:25.664Z,960.41
2022-09-22T11:49:25.658Z,960.44
2022-09-22T11:50:25.625Z,960.38
2022-09-22T11:51:25.620Z,960.39
2022-09-22T11:52:25.610Z,960.43
2022-09-22T11:53:25.605Z,960.43
2022-09-22T11:54:25.596Z,960.45
2022-09-22T11:55:25.597Z,960.4
2022-09-22T11:56:25.581Z,960.42
2022-09-22T11:57:25.574Z,960.45
2022-09-22T11:58:25.566Z,960.38
2022-09-22T11:59:25.559Z,960.36
2022-09-22T12:00:25.551Z,960.39
2022-09-22T12:01:25.544Z,960.34
2022-09-22T12:02:25.639Z,960.37
2022-09-22T12:03:25.615Z,960.32
2022-09-22T12:04:25.519Z,960.29
2022-09-22T12:05:25.539Z,960.29
2022-09-22T12:06:25.504Z,960.3
2022-09-22T12:07:25.498Z,960.26
2022-09-22T12:08:25.489Z,960.25
2022-09-22T12:09:25.483Z,960.3
2022-09-22T12:10:25.473Z,960.25
2022-09-22T12:11:25.468Z,960.26
2022-09-22T12:12:25.459Z,960.22
2022-09-22T12:13:25.453Z,960.18
2022-09-22T12:14:25.442Z,960.2
2022-09-22T12:15:25.438Z,960.23
2022-09-22T12:16:25.429Z,960.19
2022-09-22T12:17:25.424Z,960.15
2022-09-22T12:18:25.413Z,960.15
2022-09-22T12:19:25.406Z,960.13
2022-09-22T12:20:25.398Z,960.17
2022-09-22T12:21:25.416Z,960.15
2022-09-22T12:22:25.384Z,960.15
2022-09-22T12:23:25.374Z,960.15
2022-09-22T12:24:25.366Z,960.11
2022-09-22T12:25:37.643Z,960.12
2022-09-22T12:26:25.352Z,960.14
2022-09-22T12:27:25.342Z,960.15
2022-09-22T12:28:25.335Z,960.14
2022-09-22T12:29:25.324Z,960.15
2022-09-22T12:30:25.346Z,960.16
2022-09-22T12:32:25.302Z,960.22
2022-09-22T12:33:25.292Z,960.21
2022-09-22T12:34:25.290Z,960.2
2022-09-22T12:35:26.286Z,960.17
2022-09-22T12:36:25.269Z,960.2
2022-09-22T12:37:25.292Z,960.15
2022-09-22T12:38:25.251Z,960.17
2022-09-22T12:39:25.239Z,960.11
2022-09-22T12:40:25.285Z,960.14
2022-09-22T12:41:25.222Z,960.09
2022-09-22T12:42:25.216Z,960.07
2022-09-22T12:43:25.207Z,960.08
2022-09-22T12:44:25.202Z,960.11
2022-09-22T12:45:25.190Z,960.12
2022-09-22T12:46:25.182Z,960.08
2022-09-22T12:47:25.172Z,960.09
2022-09-22T12:48:25.174Z,960.06
2022-09-22T12:49:25.155Z,960.13
2022-09-22T12:50:25.146Z,960.1